createdAt,value
2018-12-31T00:00:22.011Z,80.59
2018-12-31T00:02:59.039Z,80.58
2018-12-31T00:05:32.350Z,80.59
2018-12-31T00:08:04.823Z,80.60
2018-12-31T00:10:35.422Z,80.59
2018-12-31T00:13:06.682Z,80.59
2018-12-31T00:15:42.502Z,80.60
2018-12-31T00:18:13.195Z,80.61
2018-12-31T00:20:51.907Z,80.61
2018-12-31T00:23:22.454Z,80.64
2018-12-31T00:25:53.019Z,80.62
2018-12-31T00:28:28.785Z,80.62
2018-12-31T00:30:59.374Z,80.63
2018-12-31T00:33:30.111Z,80.65
2018-12-31T00:36:00.739Z,80.66
2018-12-31T00:38:31.230Z,80.66
2018-12-31T00:41:09.680Z,80.66
2018-12-31T00:43:40.299Z,80.65
2018-12-31T00:46:10.601Z,80.67
2018-12-31T00:48:41.216Z,80.67
2018-12-31T00:51:11.575Z,80.68
2018-12-31T00:53:44.032Z,80.69
2018-12-31T00:56:14.387Z,80.69
2018-12-31T00:58:46.308Z,80.70
2018-12-31T01:01:17.019Z,80.68
2018-12-31T01:03:47.690Z,80.69
2018-12-31T01:06:18.339Z,80.69
2018-12-31T01:08:50.519Z,80.70
2018-12-31T01:11:20.834Z,80.71
2018-12-31T01:13:51.527Z,80.71
2018-12-31T01:16:26.262Z,80.73
2018-12-31T01:18:56.903Z,80.72
2018-12-31T01:21:27.488Z,80.73
2018-12-31T01:24:05.380Z,80.73
2018-12-31T01:26:35.725Z,80.72
2018-12-31T01:29:10.312Z,80.73
2018-12-31T01:31:40.779Z,80.74
2018-12-31T01:34:11.757Z,80.75
2018-12-31T01:36:54.751Z,80.75
2018-12-31T01:39:24.190Z,80.76
2018-12-31T01:41:54.576Z,80.75
2018-12-31T01:44:25.763Z,80.76
2018-12-31T01:46:56.199Z,80.76
2018-12-31T01:49:27.986Z,80.75
2018-12-31T01:52:02.733Z,80.76
2018-12-31T01:54:33.354Z,80.77
2018-12-31T01:57:03.719Z,80.77
2018-12-31T01:59:36.598Z,80.80
2018-12-31T02:02:08.510Z,80.80
2018-12-31T02:04:39.997Z,80.82
2018-12-31T02:07:12.100Z,80.81
2018-12-31T02:09:42.730Z,80.83
2018-12-31T02:12:16.367Z,80.86
2018-12-31T02:14:48.545Z,80.85
2018-12-31T02:17:18.956Z,80.87
2018-12-31T02:19:52.789Z,80.86
2018-12-31T02:22:23.116Z,80.86
2018-12-31T02:24:54.381Z,80.89
2018-12-31T02:27:26.648Z,80.87
2018-12-31T02:29:58.421Z,80.87
2018-12-31T02:32:33.337Z,80.88
2018-12-31T02:35:04.249Z,80.88
2018-12-31T02:37:34.624Z,80.89
2018-12-31T02:40:06.679Z,80.90
2018-12-31T02:42:39.157Z,80.89
2018-12-31T02:45:09.816Z,80.91
2018-12-31T02:47:40.137Z,80.90
2018-12-31T02:50:12.515Z,80.90
2018-12-31T02:52:43.063Z,80.92
2018-12-31T02:55:15.621Z,80.92
2018-12-31T02:57:45.948Z,80.93
2018-12-31T03:00:16.367Z,80.90
2018-12-31T03:02:49.930Z,80.91
2018-12-31T03:05:21.663Z,80.91
2018-12-31T03:07:54.917Z,80.95
2018-12-31T03:10:27.207Z,80.94
2018-12-31T03:12:57.533Z,80.92
2018-12-31T03:15:28.222Z,80.94
2018-12-31T03:18:00.507Z,80.95
2018-12-31T03:20:34.180Z,80.96
2018-12-31T03:23:04.514Z,80.96
2018-12-31T03:25:41.538Z,80.97
2018-12-31T03:28:11.881Z,80.96
2018-12-31T03:30:43.792Z,80.97
2018-12-31T03:33:21.346Z,80.96
2018-12-31T03:35:52.577Z,80.98
2018-12-31T03:38:24.251Z,80.95
2018-12-31T03:40:57.186Z,80.99
2018-12-31T03:43:27.444Z,80.98
2018-12-31T03:45:59.171Z,80.98
2018-12-31T03:48:33.618Z,81.00
2018-12-31T03:51:05.533Z,81.00
2018-12-31T03:53:35.974Z,81.01
2018-12-31T03:56:15.647Z,81.01
2018-12-31T03:58:44.735Z,81.01
2018-12-31T04:01:16.549Z,81.03
2018-12-31T04:04:01.833Z,81.02
2018-12-31T04:06:32.457Z,81.02
2018-12-31T04:09:09.863Z,81.02
2018-12-31T04:11:43.111Z,81.04
2018-12-31T04:14:13.840Z,81.04
2018-12-31T04:16:44.219Z,81.04
2018-12-31T04:19:19.606Z,81.06
2018-12-31T04:21:50.025Z,81.07
2018-12-31T04:24:22.271Z,81.08
2018-12-31T04:27:03.504Z,81.08
2018-12-31T04:29:34.850Z,81.10
2018-12-31T04:32:07.017Z,81.08
2018-12-31T04:34:37.683Z,81.09
2018-12-31T04:37:08.053Z,81.10
2018-12-31T04:39:55.082Z,81.14
2018-12-31T04:42:17.895Z,81.14
2018-12-31T04:44:49.584Z,81.14
2018-12-31T04:47:25.013Z,81.13
2018-12-31T04:49:56.240Z,81.14
2018-12-31T04:52:26.719Z,81.13
2018-12-31T04:54:58.453Z,81.15
2018-12-31T04:57:28.899Z,81.14
2018-12-31T05:00:00.974Z,81.14
2018-12-31T05:02:33.118Z,81.14
2018-12-31T05:05:06.021Z,81.16
2018-12-31T05:07:39.466Z,81.15
2018-12-31T05:10:11.655Z,81.16
2018-12-31T05:13:00.744Z,81.17
2018-12-31T05:15:31.477Z,81.16
2018-12-31T05:18:02.367Z,81.17
2018-12-31T05:20:34.616Z,81.17
2018-12-31T05:23:05.452Z,81.19
2018-12-31T05:25:36.353Z,81.17
2018-12-31T05:28:06.905Z,81.17
2018-12-31T05:30:37.652Z,81.18
2018-12-31T05:33:09.664Z,81.19
2018-12-31T05:35:41.353Z,81.19
2018-12-31T05:38:11.783Z,81.18
2018-12-31T05:40:46.767Z,81.19
2018-12-31T05:43:17.157Z,81.18
2018-12-31T05:45:47.847Z,81.21
2018-12-31T05:48:18.342Z,81.20
2018-12-31T05:50:50.716Z,81.21
2018-12-31T05:53:21.127Z,81.20
2018-12-31T05:55:51.580Z,81.21
2018-12-31T05:58:22.190Z,81.19
2018-12-31T06:00:53.022Z,81.55
2018-12-31T06:03:38.691Z,81.55
2018-12-31T06:05:57.936Z,81.20
2018-12-31T06:08:28.288Z,81.23
2018-12-31T06:11:02.428Z,81.24
2018-12-31T06:13:33.195Z,81.26
2018-12-31T06:16:04.687Z,81.27
2018-12-31T06:18:36.635Z,81.25
2018-12-31T06:21:06.940Z,81.27
2018-12-31T06:23:37.700Z,81.27
2018-12-31T06:26:13.594Z,81.26
2018-12-31T06:28:43.939Z,81.26
2018-12-31T06:31:14.358Z,81.26
2018-12-31T06:33:46.108Z,81.26
2018-12-31T06:36:16.504Z,81.30
2018-12-31T06:38:56.785Z,81.29
2018-12-31T06:41:25.233Z,81.30
2018-12-31T06:43:56.188Z,81.29
2018-12-31T06:46:26.549Z,81.31
2018-12-31T06:48:58.843Z,81.28
2018-12-31T06:51:29.200Z,81.30
2018-12-31T06:53:59.907Z,81.31
2018-12-31T06:56:38.588Z,81.29
2018-12-31T06:59:10.638Z,81.31
2018-12-31T07:01:41.386Z,81.31
2018-12-31T07:04:24.434Z,81.30
2018-12-31T07:06:52.071Z,81.28
2018-12-31T07:09:29.229Z,81.30
2018-12-31T07:11:58.218Z,81.30
2018-12-31T07:14:28.730Z,81.30
2018-12-31T07:17:04.523Z,81.31
2018-12-31T07:19:36.776Z,81.30
2018-12-31T07:22:08.796Z,81.30
2018-12-31T07:24:55.844Z,81.30
2018-12-31T07:27:15.177Z,81.32
2018-12-31T07:29:45.502Z,81.30
2018-12-31T07:32:20.637Z,81.31
2018-12-31T07:34:54.347Z,81.31
2018-12-31T07:37:25.065Z,81.30
2018-12-31T07:42:35.044Z,81.31
2018-12-31T07:45:05.600Z,81.30
2018-12-31T07:47:37.359Z,81.30
2018-12-31T07:50:08.016Z,81.30
2018-12-31T07:52:41.667Z,81.29
2018-12-31T07:55:13.707Z,81.32
2018-12-31T07:57:44.437Z,81.33
2018-12-31T08:00:14.799Z,81.32
2018-12-31T08:02:47.351Z,81.36
2018-12-31T08:05:18.902Z,81.35
2018-12-31T08:07:56.125Z,81.35
2018-12-31T08:10:26.722Z,81.35
2018-12-31T08:12:57.393Z,81.37
2018-12-31T08:15:30.730Z,81.37
2018-12-31T08:18:01.358Z,81.37
2018-12-31T08:20:31.663Z,81.40
2018-12-31T08:23:04.643Z,81.40
2018-12-31T08:25:34.929Z,81.42
2018-12-31T08:28:06.642Z,81.40
2018-12-31T08:30:37.001Z,81.40
2018-12-31T08:33:09.235Z,81.40
2018-12-31T08:35:48.347Z,81.40
2018-12-31T08:38:19.018Z,81.40
2018-12-31T08:40:49.392Z,81.39
2018-12-31T08:43:21.717Z,81.40
2018-12-31T08:45:53.408Z,81.38
2018-12-31T08:48:24.445Z,81.39
2018-12-31T08:50:55.021Z,81.37
2018-12-31T08:53:36.937Z,81.37
2018-12-31T08:56:02.010Z,81.36
2018-12-31T08:58:33.760Z,81.36
2018-12-31T09:01:11.162Z,81.37
2018-12-31T09:03:43.602Z,81.37
2018-12-31T09:06:17.033Z,81.33
2018-12-31T09:08:47.670Z,81.33
2018-12-31T09:11:25.612Z,81.35
2018-12-31T09:13:56.480Z,81.32
2018-12-31T09:16:26.798Z,81.32
2018-12-31T09:18:58.846Z,81.32
2018-12-31T09:21:30.501Z,81.29
2018-12-31T09:24:02.643Z,81.28
2018-12-31T09:26:33.217Z,81.26
2018-12-31T09:29:07.548Z,81.22
2018-12-31T09:31:37.983Z,81.22
2018-12-31T09:34:33.233Z,81.18
2018-12-31T09:36:42.289Z,81.15
2018-12-31T09:39:13.046Z,81.12
2018-12-31T09:41:45.250Z,81.09
2018-12-31T09:44:15.953Z,81.06
2018-12-31T09:46:54.118Z,81.02
2018-12-31T09:49:23.692Z,80.95
2018-12-31T09:51:57.167Z,80.92
2018-12-31T09:54:29.074Z,80.86
2018-12-31T09:56:59.728Z,80.79
2018-12-31T09:59:30.435Z,80.72
2018-12-31T10:02:00.874Z,80.62
2018-12-31T10:04:38.076Z,80.54
2018-12-31T10:07:11.450Z,80.47
2018-12-31T10:09:50.651Z,80.35
2018-12-31T10:12:20.894Z,80.25
2018-12-31T10:15:01.419Z,80.12
2018-12-31T10:17:31.863Z,79.93
2018-12-31T10:20:03.797Z,79.68
2018-12-31T10:22:34.490Z,79.49
2018-12-31T10:25:12.511Z,79.25
2018-12-31T10:27:44.496Z,78.97
2018-12-31T10:30:17.826Z,78.80
2018-12-31T10:32:49.202Z,78.59
2018-12-31T10:35:23.761Z,78.45
2018-12-31T10:37:54.828Z,78.36
2018-12-31T10:40:25.178Z,78.20
2018-12-31T10:42:58.400Z,78.12
2018-12-31T10:45:29.009Z,77.93
2018-12-31T10:47:59.952Z,77.89
2018-12-31T10:50:32.626Z,77.83
2018-12-31T10:53:03.778Z,77.80
2018-12-31T10:55:34.762Z,77.58
2018-12-31T10:58:05.150Z,77.48
2018-12-31T11:00:35.805Z,77.45
2018-12-31T11:03:11.912Z,77.28
2018-12-31T11:05:42.549Z,77.26
2018-12-31T11:08:13.047Z,77.30
2018-12-31T11:10:43.705Z,77.27
2018-12-31T11:13:14.125Z,77.32
2018-12-31T11:15:46.039Z,77.37
2018-12-31T11:18:16.465Z,77.27
2018-12-31T11:20:46.956Z,77.15
2018-12-31T11:23:18.589Z,77.11
2018-12-31T11:25:49.037Z,76.94
2018-12-31T11:28:23.657Z,76.93
2018-12-31T11:30:54.253Z,76.95
2018-12-31T11:33:24.685Z,77.05
2018-12-31T11:35:57.005Z,76.91
2018-12-31T11:38:27.509Z,76.64
2018-12-31T11:41:13.494Z,76.66
2018-12-31T11:43:36.667Z,76.56
2018-12-31T11:46:08.458Z,76.15
2018-12-31T11:48:38.763Z,75.97
2018-12-31T11:51:09.481Z,75.89
2018-12-31T11:53:41.689Z,75.97
2018-12-31T11:56:14.011Z,76.01
2018-12-31T11:58:44.358Z,76.01
2018-12-31T12:01:20.454Z,75.38
2018-12-31T12:03:51.275Z,75.27
2018-12-31T12:06:22.008Z,75.10
2018-12-31T12:09:00.479Z,75.02
2018-12-31T12:11:31.293Z,75.12
2018-12-31T12:14:04.961Z,75.19
2018-12-31T12:16:37.393Z,75.31
2018-12-31T12:19:09.735Z,75.10
2018-12-31T12:21:42.897Z,75.20
2018-12-31T12:24:14.573Z,75.20
2018-12-31T12:26:45.354Z,75.25
2018-12-31T12:29:17.212Z,75.36
2018-12-31T12:31:47.836Z,75.54
2018-12-31T12:34:18.156Z,75.70
2018-12-31T12:36:49.114Z,75.73
2018-12-31T12:39:19.541Z,75.67
2018-12-31T12:41:55.008Z,75.55
2018-12-31T12:44:25.635Z,75.59
2018-12-31T12:46:58.348Z,75.45
2018-12-31T12:49:28.363Z,75.40
2018-12-31T12:51:58.687Z,75.24
2018-12-31T12:54:36.559Z,75.21
2018-12-31T12:57:07.357Z,74.98
2018-12-31T12:59:39.055Z,75.06
2018-12-31T13:02:11.561Z,75.17
2018-12-31T13:04:42.882Z,75.13
2018-12-31T13:07:16.544Z,75.13
2018-12-31T13:09:50.394Z,75.13
2018-12-31T13:12:32.373Z,75.00
2018-12-31T13:15:03.276Z,74.73
2018-12-31T13:17:50.187Z,74.82
2018-12-31T13:20:10.351Z,74.98
2018-12-31T13:22:40.999Z,75.11
2018-12-31T13:25:13.048Z,75.10
2018-12-31T13:27:43.409Z,74.97
2018-12-31T13:30:16.453Z,74.87
2018-12-31T13:32:48.277Z,74.85
2018-12-31T13:35:18.564Z,74.64
2018-12-31T13:37:55.553Z,74.56
2018-12-31T13:40:26.653Z,74.51
2018-12-31T13:42:57.438Z,74.59
2018-12-31T13:45:31.166Z,74.55
2018-12-31T13:48:03.423Z,74.57
2018-12-31T13:50:34.327Z,74.51
2018-12-31T13:53:05.239Z,74.60
2018-12-31T13:55:35.627Z,74.69
2018-12-31T13:58:06.020Z,74.64
2018-12-31T14:00:38.244Z,74.69
2018-12-31T14:03:16.924Z,74.40
2018-12-31T14:05:41.018Z,74.36
2018-12-31T14:08:11.665Z,74.33
2018-12-31T14:10:43.799Z,74.29
2018-12-31T14:13:17.476Z,74.28
2018-12-31T14:15:56.083Z,74.26
2018-12-31T14:18:26.591Z,74.24
2018-12-31T14:20:57.389Z,74.47
2018-12-31T14:23:30.870Z,74.45
2018-12-31T14:26:01.325Z,74.33
2018-12-31T14:28:35.522Z,74.48
2018-12-31T14:31:06.425Z,74.54
2018-12-31T14:33:36.797Z,74.60
2018-12-31T14:36:07.141Z,74.71
2018-12-31T14:38:37.965Z,74.78
2018-12-31T14:41:11.259Z,74.88
2018-12-31T14:43:43.500Z,74.84
2018-12-31T14:46:13.805Z,74.96
2018-12-31T14:48:44.498Z,75.07
2018-12-31T14:51:15.459Z,75.14
2018-12-31T14:53:54.528Z,75.25
2018-12-31T14:56:24.968Z,75.34
2018-12-31T14:59:07.377Z,75.33
2018-12-31T15:01:36.847Z,75.35
2018-12-31T15:04:07.389Z,75.41
2018-12-31T15:06:44.614Z,75.48
2018-12-31T15:09:15.204Z,75.57
2018-12-31T15:11:50.238Z,75.62
2018-12-31T15:14:22.488Z,75.73
2018-12-31T15:16:52.884Z,75.74
2018-12-31T15:19:23.343Z,75.82
2018-12-31T15:21:53.980Z,75.90
2018-12-31T15:24:27.466Z,75.71
2018-12-31T15:26:59.212Z,75.71
2018-12-31T15:29:31.658Z,76.02
2018-12-31T15:32:02.941Z,76.09
2018-12-31T15:34:35.337Z,76.13
2018-12-31T15:37:05.908Z,76.14
2018-12-31T15:39:37.655Z,76.17
2018-12-31T15:42:10.526Z,76.21
2018-12-31T15:44:41.055Z,76.24
2018-12-31T15:47:14.282Z,76.25
2018-12-31T15:49:50.224Z,76.31
2018-12-31T15:52:24.239Z,76.42
2018-12-31T15:54:56.242Z,76.34
2018-12-31T15:57:26.766Z,76.34
2018-12-31T16:00:09.958Z,76.49
2018-12-31T16:02:40.577Z,76.52
2018-12-31T16:05:14.073Z,76.56
2018-12-31T16:07:46.203Z,76.58
2018-12-31T16:10:18.022Z,76.62
2018-12-31T16:12:49.467Z,76.59
2018-12-31T16:15:29.310Z,76.66
2018-12-31T16:17:58.010Z,76.69
2018-12-31T16:20:28.407Z,76.73
2018-12-31T16:23:01.155Z,76.78
2018-12-31T16:25:35.770Z,76.78
2018-12-31T16:28:07.383Z,76.83
2018-12-31T16:30:37.854Z,76.82
2018-12-31T16:33:12.196Z,76.85
2018-12-31T16:35:42.559Z,76.85
2018-12-31T16:38:14.523Z,76.93
2018-12-31T16:40:46.149Z,76.99
2018-12-31T16:43:17.959Z,76.83
2018-12-31T16:45:49.998Z,76.83
2018-12-31T16:48:23.318Z,77.07
2018-12-31T16:50:53.647Z,77.14
2018-12-31T16:53:26.518Z,77.15
2018-12-31T16:55:56.946Z,77.20
2018-12-31T16:58:34.534Z,77.21
2018-12-31T17:01:04.668Z,77.24
2018-12-31T17:03:36.627Z,77.22
2018-12-31T17:06:17.113Z,77.29
2018-12-31T17:08:44.710Z,77.29
2018-12-31T17:11:15.047Z,77.30
2018-12-31T17:13:50.304Z,77.26
2018-12-31T17:16:21.203Z,77.26
2018-12-31T17:19:00.331Z,77.37
2018-12-31T17:21:29.529Z,77.37
2018-12-31T17:24:02.602Z,77.23
2018-12-31T17:26:34.898Z,77.12
2018-12-31T17:29:05.631Z,76.86
2018-12-31T17:31:36.171Z,76.39
2018-12-31T17:34:11.776Z,75.86
2018-12-31T17:36:45.954Z,75.62
2018-12-31T17:39:20.403Z,75.34
2018-12-31T17:41:50.836Z,75.28
2018-12-31T17:44:29.588Z,75.22
2018-12-31T17:47:02.126Z,75.19
2018-12-31T17:49:33.043Z,75.20
2018-12-31T17:52:03.442Z,75.23
2018-12-31T17:54:34.356Z,75.21
2018-12-31T17:57:06.859Z,75.19
2018-12-31T17:59:37.152Z,75.19
2018-12-31T18:02:10.519Z,75.19
2018-12-31T18:04:41.300Z,75.23
2018-12-31T18:07:17.231Z,75.21
2018-12-31T18:09:49.172Z,75.23
2018-12-31T18:12:20.590Z,75.18
2018-12-31T18:14:52.573Z,75.17
2018-12-31T18:17:22.971Z,74.83
2018-12-31T18:19:56.867Z,74.73
2018-12-31T18:22:27.585Z,74.23
2018-12-31T18:24:58.111Z,74.21
2018-12-31T18:27:28.610Z,73.81
2018-12-31T18:29:58.964Z,73.54
2018-12-31T18:32:29.463Z,73.57
2018-12-31T18:34:59.929Z,73.54
2018-12-31T18:37:30.830Z,73.54
2018-12-31T18:40:01.736Z,73.61
2018-12-31T18:42:33.745Z,73.70
2018-12-31T18:45:09.858Z,73.76
2018-12-31T18:47:40.532Z,73.79
2018-12-31T18:50:11.013Z,73.94
2018-12-31T18:52:41.688Z,74.05
2018-12-31T18:55:23.233Z,74.26
2018-12-31T18:57:54.083Z,74.40
2018-12-31T19:00:24.763Z,74.44
2018-12-31T19:02:55.379Z,74.45
2018-12-31T19:05:29.988Z,74.43
2018-12-31T19:08:02.325Z,74.36
2018-12-31T19:10:33.180Z,74.39
2018-12-31T19:13:03.982Z,74.50
2018-12-31T19:15:34.644Z,74.58
2018-12-31T19:18:06.924Z,74.72
2018-12-31T19:20:40.088Z,74.86
2018-12-31T19:23:10.447Z,74.90
2018-12-31T19:25:51.169Z,74.95
2018-12-31T19:28:25.457Z,74.97
2018-12-31T19:30:56.168Z,74.80
2018-12-31T19:33:26.546Z,74.80
2018-12-31T19:36:01.926Z,75.17
2018-12-31T19:38:32.352Z,75.20
2018-12-31T19:41:13.819Z,75.23
2018-12-31T19:43:44.144Z,75.26
2018-12-31T19:46:14.948Z,75.24
2018-12-31T19:48:53.377Z,75.30
2018-12-31T19:51:26.715Z,75.24
2018-12-31T19:53:57.288Z,75.17
2018-12-31T19:56:27.982Z,75.18
2018-12-31T19:59:00.998Z,75.10
2018-12-31T20:01:31.089Z,74.91
2018-12-31T20:04:01.413Z,74.87
2018-12-31T20:06:32.105Z,74.91
2018-12-31T20:09:02.568Z,74.88
2018-12-31T20:11:34.596Z,74.88
2018-12-31T20:14:18.649Z,74.95
2018-12-31T20:16:49.314Z,74.90
2018-12-31T20:19:20.308Z,74.85
2018-12-31T20:21:51.020Z,74.75
2018-12-31T20:24:30.819Z,74.75
2018-12-31T20:27:05.217Z,74.82
2018-12-31T20:29:52.018Z,74.94
2018-12-31T20:32:34.480Z,74.96
2018-12-31T20:35:07.782Z,74.96
2018-12-31T20:37:40.133Z,74.99
2018-12-31T20:40:10.642Z,74.93
2018-12-31T20:42:50.236Z,74.74
2018-12-31T20:45:30.128Z,74.65
2018-12-31T20:48:01.958Z,74.65
2018-12-31T20:50:33.031Z,74.57
2018-12-31T20:53:03.833Z,74.56
2018-12-31T20:55:34.250Z,74.57
2018-12-31T20:58:11.050Z,74.70
2018-12-31T21:00:54.579Z,74.76
2018-12-31T21:03:25.213Z,74.82
2018-12-31T21:05:56.327Z,74.93
2018-12-31T21:08:27.060Z,74.86
2018-12-31T21:11:01.942Z,74.88
2018-12-31T21:13:34.197Z,75.10
2018-12-31T21:16:05.545Z,75.48
2018-12-31T21:18:37.315Z,75.86
2018-12-31T21:21:09.731Z,76.10
2018-12-31T21:23:41.269Z,76.44
2018-12-31T21:26:11.963Z,76.77
2018-12-31T21:28:42.760Z,77.10
2018-12-31T21:31:13.111Z,77.36
2018-12-31T21:33:48.954Z,77.47
2018-12-31T21:36:19.271Z,77.55
2018-12-31T21:38:50.039Z,77.65
2018-12-31T21:41:20.403Z,77.68
2018-12-31T21:43:51.072Z,77.72
2018-12-31T21:46:22.733Z,77.73
2018-12-31T21:48:55.639Z,77.76
2018-12-31T21:51:26.090Z,77.78
2018-12-31T21:53:57.845Z,77.74
2018-12-31T21:56:45.630Z,77.73
2018-12-31T21:59:16.233Z,77.73
2018-12-31T22:01:46.590Z,77.71
2018-12-31T22:04:17.951Z,77.76
2018-12-31T22:07:03.573Z,77.73
2018-12-31T22:09:21.767Z,77.71
2018-12-31T22:11:52.433Z,77.67
2018-12-31T22:14:23.165Z,77.70
2018-12-31T22:16:53.580Z,77.71
2018-12-31T22:19:26.726Z,77.68
2018-12-31T22:22:01.719Z,77.69
2018-12-31T22:24:33.359Z,77.64
2018-12-31T22:27:03.987Z,77.59
2018-12-31T22:29:34.366Z,77.65
2018-12-31T22:32:04.779Z,77.71
2018-12-31T22:34:37.523Z,77.75
2018-12-31T22:37:14.109Z,77.85
2018-12-31T22:39:46.056Z,77.95
2018-12-31T22:42:16.430Z,78.07
2018-12-31T22:44:47.045Z,78.13
2018-12-31T22:47:27.229Z,78.20
2018-12-31T22:50:03.025Z,77.93
2018-12-31T22:52:33.962Z,77.93
2018-12-31T22:55:04.550Z,78.06
2018-12-31T22:57:47.373Z,77.99
2018-12-31T23:00:29.139Z,77.92
2018-12-31T23:03:01.104Z,77.56
2018-12-31T23:05:42.695Z,77.38
2018-12-31T23:08:16.451Z,77.31
2018-12-31T23:10:49.848Z,77.15
2018-12-31T23:13:25.898Z,77.00
2018-12-31T23:15:57.766Z,76.84
2018-12-31T23:18:35.835Z,76.72
2018-12-31T23:21:10.136Z,76.65
2018-12-31T23:23:42.676Z,76.19
2018-12-31T23:26:14.920Z,76.17
2018-12-31T23:28:52.466Z,76.13
2018-12-31T23:31:17.541Z,75.77
2018-12-31T23:33:47.804Z,75.45
2018-12-31T23:36:19.760Z,75.11
2018-12-31T23:38:50.304Z,74.55
2018-12-31T23:41:20.800Z,73.93
2018-12-31T23:44:10.897Z,73.71
2018-12-31T23:46:36.180Z,73.61
2018-12-31T23:49:06.693Z,73.65
2018-12-31T23:51:38.683Z,74.00
2018-12-31T23:54:09.218Z,74.00
2018-12-31T23:56:39.830Z,73.98
2018-12-31T23:59:10.836Z,73.82
